Terminal Aerodrome Forecast
Issued by NWS

Home | Current Version | Previous Version | Text Only | Print | Product List | Glossary On
Versions: 1 2 3 4 5 6 7 8 9 10 11 12 13 14 15 16 17 18 19 20 21 22 23 24 25 26
792
FTUS42 KCAE 261720
TAFDNL
TAF
KDNL 261720Z 2618/2718 05006KT P6SM SCT060 SCT500
     FM270000 11003KT P6SM SCT200
     FM271400 33003KT P6SM SCT200=

USA.gov is the U.S. government's official web portal to all federal, state and local government web resources and services.